Time;durP1;ratioP1;P1;durP2;ratioP2;P2;SDS_P1;SDS_P2;PMS_P1;PMS_P2;Temp;Humidity;BMP_temperature;BMP_pressure;BME280_temperature;BME280_humidity;BME280_pressure;Samples;Min_cycle;Max_cycle;Signal;HPM_P1;HPM_P2
2022/11/12 00:01:36;;;;;;;;;;;;;;;16.21;76.27;102077.81;5081741;28;1787;-63
2022/11/12 00:04:02;;;;;;;;;;;;;;;16.22;75.94;102081.41;5073506;28;1897;-62
2022/11/12 00:06:27;;;;;;;;;;;;;;;16.22;75.93;102079.47;5067346;28;1591;-62
2022/11/12 00:08:52;;;;;;;;;;;;;;;16.22;76.20;102075.91;5055429;28;1575;-62
2022/11/12 00:11:17;;;;;;;;;;;;;;;16.21;76.38;102075.06;5068989;28;2081;-63
2022/11/12 00:13:42;;;;;;;;;;;;;;;16.20;76.29;102073.41;5086879;28;1563;-63
2022/11/12 00:16:08;;;;;;;;;;;;;;;16.20;76.60;102084.47;5094652;28;888;-62
2022/11/12 00:18:33;;;;;;;;;;;;;;;16.18;76.47;102081.13;5093932;28;881;-62
2022/11/12 00:20:59;;;;;;;;;;;;;;;16.18;75.85;102083.91;5090937;28;1640;-62
2022/11/12 00:23:24;;;;;;;;;;;;;;;16.18;76.16;102083.06;5074490;28;1958;-62
2022/11/12 00:25:57;;;;;;;;;;;;;;;16.17;75.93;102078.66;5073258;28;1882;-63
2022/11/12 00:28:22;;;;;;;;;;;;;;;16.17;76.30;102079.47;5054430;28;999;-62
2022/11/12 00:30:47;;;;;;;;;;;;;;;16.16;76.16;102077.81;5064319;28;1878;-63
2022/11/12 00:33:12;;;;;;;;;;;;;;;16.17;76.17;102087.75;5086101;28;1660;-62
2022/11/12 00:35:37;;;;;;;;;;;;;;;16.15;76.45;102084.47;5094266;28;1037;-62
2022/11/12 00:38:02;;;;;;;;;;;;;;;16.15;76.43;102084.47;5070967;28;1980;-63
2022/11/12 00:40:28;;;;;;;;;;;;;;;16.14;76.37;102091.09;5071928;28;1703;-63
2022/11/12 00:42:53;;;;;;;;;;;;;;;16.14;76.55;102091.09;5080862;28;2285;-62
2022/11/12 00:45:19;;;;;;;;;;;;;;;16.15;76.23;102090.00;5055338;28;1917;-62
2022/11/12 00:47:44;;;;;;;;;;;;;;;16.14;75.95;102087.50;5073804;28;860;-62
2022/11/12 00:50:09;;;;;;;;;;;;;;;16.13;76.32;102096.91;5072866;28;1898;-62
2022/11/12 00:52:34;;;;;;;;;;;;;;;16.12;75.70;102101.59;5083541;28;1578;-62
2022/11/12 00:55:00;;;;;;;;;;;;;;;16.11;76.15;102099.94;5094055;28;1315;-63
2022/11/12 00:57:25;;;;;;;;;;;;;;;16.11;76.13;102102.72;5093853;28;896;-62
2022/11/12 00:59:50;;;;;;;;;;;;;;;16.11;76.03;102107.41;5091708;28;900;-62
2022/11/12 01:02:15;;;;;;;;;;;;;;;16.11;75.90;102108.22;5080974;28;1932;-63
2022/11/12 01:04:40;;;;;;;;;;;;;;;16.10;76.60;102116.78;5092524;28;1594;-62
2022/11/12 01:07:05;;;;;;;;;;;;;;;16.09;76.61;102115.97;5084068;28;1675;-63
2022/11/12 01:09:30;;;;;;;;;;;;;;;16.09;76.15;102113.19;5080435;28;2077;-62
2022/11/12 01:11:56;;;;;;;;;;;;;;;16.10;76.36;102114.03;5073921;28;1645;-63
2022/11/12 01:14:21;;;;;;;;;;;;;;;16.08;75.78;102114.31;5067677;28;1895;-62
2022/11/12 01:16:46;;;;;;;;;;;;;;;16.08;76.44;102121.75;5083348;28;1853;-62
2022/11/12 01:19:12;;;;;;;;;;;;;;;16.08;76.25;102119.00;5073547;28;884;-63
2022/11/12 01:21:39;;;;;;;;;;;;;;;16.08;76.44;102121.75;5073074;28;2108;-62
2022/11/12 01:24:04;;;;;;;;;;;;;;;16.08;76.25;102119.81;5080667;28;1948;-62
2022/11/12 01:26:29;;;;;;;;;;;;;;;16.08;76.37;102124.53;5067482;28;1775;-62
2022/11/12 01:28:55;;;;;;;;;;;;;;;16.08;76.45;102116.22;5076169;28;1887;-63
2022/11/12 01:31:22;;;;;;;;;;;;;;;16.07;76.37;102114.59;5074760;28;1867;-63
2022/11/12 01:33:48;;;;;;;;;;;;;;;16.07;76.06;102122.88;5067603;28;1896;-63
2022/11/12 01:36:14;;;;;;;;;;;;;;;16.08;76.60;102124.53;5064547;28;1800;-62
2022/11/12 01:38:40;;;;;;;;;;;;;;;16.07;76.42;102125.66;5077298;28;1879;-62
2022/11/12 01:41:06;;;;;;;;;;;;;;;16.06;76.31;102119.31;5071684;28;1879;-63
2022/11/12 01:43:31;;;;;;;;;;;;;;;16.06;76.30;102115.72;5080888;28;1957;-62
2022/11/12 01:45:58;;;;;;;;;;;;;;;16.05;76.37;102114.88;5072802;28;931;-63
2022/11/12 01:48:26;;;;;;;;;;;;;;;16.05;76.21;102119.56;5056885;28;1771;-62
2022/11/12 01:50:53;;;;;;;;;;;;;;;16.04;76.07;102121.50;5059253;28;1690;-62
2022/11/12 01:53:19;;;;;;;;;;;;;;;16.04;76.57;102118.75;5076808;28;1475;-62
2022/11/12 01:55:44;;;;;;;;;;;;;;;16.04;76.40;102109.63;5072929;28;728;-62
2022/11/12 01:58:11;;;;;;;;;;;;;;;16.04;76.61;102112.38;5073117;28;1045;-62
2022/11/12 02:00:36;;;;;;;;;;;;;;;16.04;76.35;102115.16;5073436;28;1680;-63
2022/11/12 02:03:03;;;;;;;;;;;;;;;16.03;76.52;102122.59;5084743;28;1947;-63
2022/11/12 02:05:29;;;;;;;;;;;;;;;16.03;76.63;102119.84;5093069;28;1260;-62
2022/11/12 02:07:56;;;;;;;;;;;;;;;16.03;76.11;102124.53;5088693;28;987;-63
2022/11/12 02:10:21;;;;;;;;;;;;;;;16.03;76.44;102113.50;5052549;28;1830;-63
2022/11/12 02:15:31;;;;;;;;;;;;;;;16.02;76.51;102118.19;5068510;28;1716;-63
2022/11/12 02:17:56;;;;;;;;;;;;;;;16.01;76.51;102115.69;5071618;28;1617;-63
2022/11/12 02:20:21;;;;;;;;;;;;;;;16.01;76.29;102112.94;5078978;28;1808;-62
2022/11/12 02:22:47;;;;;;;;;;;;;;;16.00;76.47;102109.34;5072603;28;2423;-62
2022/11/12 02:25:15;;;;;;;;;;;;;;;16.01;76.67;102107.41;5076197;28;1934;-62
2022/11/12 02:27:41;;;;;;;;;;;;;;;16.00;76.35;102112.09;5080219;28;1408;-63
2022/11/12 02:30:06;;;;;;;;;;;;;;;16.00;76.54;102108.50;5072859;28;1678;-63
2022/11/12 02:32:31;;;;;;;;;;;;;;;15.99;76.11;102112.41;5064031;28;1932;-63
2022/11/12 02:34:57;;;;;;;;;;;;;;;15.99;76.25;102113.19;5066448;28;1701;-62
2022/11/12 02:37:22;;;;;;;;;;;;;;;15.98;76.68;102117.09;5068509;28;1883;-63
2022/11/12 02:39:47;;;;;;;;;;;;;;;15.99;76.75;102118.72;5079918;28;1908;-63
2022/11/12 02:42:12;;;;;;;;;;;;;;;15.98;76.36;102125.38;5073606;28;2165;-62
2022/11/12 02:44:37;;;;;;;;;;;;;;;15.99;76.71;102115.16;5075677;28;1899;-63
2022/11/12 02:47:02;;;;;;;;;;;;;;;16.00;76.70;102116.78;5084538;28;1946;-63
2022/11/12 02:49:28;;;;;;;;;;;;;;;15.98;76.70;102116.28;5085762;28;1865;-63
2022/11/12 02:51:53;;;;;;;;;;;;;;;15.98;76.53;102114.34;5065922;28;1937;-62
2022/11/12 02:54:18;;;;;;;;;;;;;;;15.98;76.55;102119.03;5076821;28;2066;-62
2022/11/12 02:56:43;;;;;;;;;;;;;;;15.98;76.61;102113.50;5081710;28;1706;-63
2022/11/12 02:59:08;;;;;;;;;;;;;;;15.97;76.26;102118.19;5079338;28;1649;-63
2022/11/12 03:01:33;;;;;;;;;;;;;;;15.96;76.46;102122.06;5073690;28;1664;-62
2022/11/12 03:03:59;;;;;;;;;;;;;;;15.98;76.59;102124.56;5067793;28;1906;-63
2022/11/12 03:06:24;;;;;;;;;;;;;;;15.97;76.98;102122.91;5081203;28;1909;-62
2022/11/12 03:08:49;;;;;;;;;;;;;;;15.97;76.99;102118.19;5078273;28;1873;-63
2022/11/12 03:11:15;;;;;;;;;;;;;;;15.95;76.51;102114.88;5076476;28;1918;-63
2022/11/12 03:13:41;;;;;;;;;;;;;;;15.95;76.75;102117.63;5073587;28;1752;-62
2022/11/12 03:16:06;;;;;;;;;;;;;;;15.95;77.06;102125.94;5073875;28;1864;-63
2022/11/12 03:18:31;;;;;;;;;;;;;;;15.94;76.96;102127.03;5079364;28;1758;-62
2022/11/12 03:20:57;;;;;;;;;;;;;;;15.94;76.97;102128.97;5068602;28;1862;-62
2022/11/12 03:23:22;;;;;;;;;;;;;;;15.94;76.81;102129.78;5077187;28;2000;-62
2022/11/12 03:25:47;;;;;;;;;;;;;;;15.93;76.88;102128.13;5062323;28;1827;-63
2022/11/12 03:28:15;;;;;;;;;;;;;;;15.93;76.72;102125.38;5073883;28;1892;-63
2022/11/12 03:30:41;;;;;;;;;;;;;;;15.94;76.54;102123.44;5085316;28;1651;-62
2022/11/12 03:33:07;;;;;;;;;;;;;;;15.93;76.53;102119.00;5064480;28;2803;-62
2022/11/12 03:35:33;;;;;;;;;;;;;;;15.93;76.92;102119.84;5082144;28;1674;-62
2022/11/12 03:37:58;;;;;;;;;;;;;;;15.93;76.14;102116.25;5094131;28;1785;-62
2022/11/12 03:40:24;;;;;;;;;;;;;;;15.92;77.04;102109.06;5075777;28;1954;-63
2022/11/12 03:42:50;;;;;;;;;;;;;;;15.91;76.69;102110.19;5086958;28;1897;-63
2022/11/12 03:45:16;;;;;;;;;;;;;;;15.89;76.71;102107.72;5085255;28;1945;-62
2022/11/12 03:47:42;;;;;;;;;;;;;;;15.89;76.91;102111.31;5082780;28;1828;-63
2022/11/12 03:50:09;;;;;;;;;;;;;;;15.88;76.78;102109.63;5066691;28;1917;-62
2022/11/12 03:52:34;;;;;;;;;;;;;;;15.87;76.66;102102.47;5069018;28;1869;-62
2022/11/12 03:54:59;;;;;;;;;;;;;;;15.88;76.50;102092.25;5083283;28;1911;-63
2022/11/12 03:57:24;;;;;;;;;;;;;;;15.89;76.89;102096.66;5086034;28;2094;-62
2022/11/12 03:59:49;;;;;;;;;;;;;;;15.86;76.59;102095.28;5064987;28;2096;-63
2022/11/12 04:02:14;;;;;;;;;;;;;;;15.88;76.43;102092.25;5085472;28;1968;-63
2022/11/12 04:10:07;;;;;;;;;;;;;;;15.87;76.90;102091.41;5066630;28;1781;-62
2022/11/12 04:15:16;;;;;;;;;;;;;;;15.87;76.76;102093.34;5074027;28;1912;-63
2022/11/12 04:23:09;;;;;;;;;;;;;;;15.86;76.96;102088.91;5080614;28;1932;-62
2022/11/12 04:28:18;;;;;;;;;;;;;;;15.84;76.86;102091.97;5069975;28;1873;-62
2022/11/12 04:30:43;;;;;;;;;;;;;;;15.84;77.18;102091.13;5085291;28;1615;-62
2022/11/12 04:33:08;;;;;;;;;;;;;;;15.84;77.20;102096.66;5073276;28;1887;-62
2022/11/12 04:35:33;;;;;;;;;;;;;;;15.84;77.27;102099.41;5083679;28;1707;-62
2022/11/12 04:37:59;;;;;;;;;;;;;;;15.85;76.95;102092.78;5066965;28;1956;-62
2022/11/12 04:45:54;;;;;;;;;;;;;;;15.84;77.08;102110.47;5056037;28;1809;-62
2022/11/12 04:48:20;;;;;;;;;;;;;;;15.82;76.95;102099.69;5074513;28;1920;-62
2022/11/12 04:50:49;;;;;;;;;;;;;;;15.83;77.10;102103.28;5067866;28;2026;-62
2022/11/12 04:53:14;;;;;;;;;;;;;;;15.80;76.89;102096.41;5084084;28;1607;-62
2022/11/12 04:55:40;;;;;;;;;;;;;;;15.81;77.22;102103.56;5077791;28;1750;-62
2022/11/12 04:58:05;;;;;;;;;;;;;;;15.80;77.05;102093.63;5076749;28;1846;-62
2022/11/12 05:00:30;;;;;;;;;;;;;;;15.80;76.88;102104.69;5066227;28;1967;-62
2022/11/12 05:02:55;;;;;;;;;;;;;;;15.80;77.02;102101.91;5072050;28;1897;-62
2022/11/12 05:05:20;;;;;;;;;;;;;;;15.80;77.14;102098.31;5080471;28;1728;-62
2022/11/12 05:07:45;;;;;;;;;;;;;;;15.80;77.02;102101.91;5074773;28;1831;-62
2022/11/12 05:10:11;;;;;;;;;;;;;;;15.79;77.10;102096.66;5070701;28;1975;-63
2022/11/12 05:12:36;;;;;;;;;;;;;;;15.80;77.37;102095.56;5072874;28;2030;-63
2022/11/12 05:15:02;;;;;;;;;;;;;;;15.79;77.15;102104.94;5074936;28;1906;-62
2022/11/12 05:17:27;;;;;;;;;;;;;;;15.77;76.98;102096.94;5066142;28;1884;-63
2022/11/12 05:19:52;;;;;;;;;;;;;;;15.77;77.24;102099.69;5062684;28;1940;-62
2022/11/12 05:22:17;;;;;;;;;;;;;;;15.77;77.08;102090.59;5084046;28;1897;-63
2022/11/12 05:24:43;;;;;;;;;;;;;;;15.02;76.87;101968.84;5081558;28;1914;-63
2022/11/12 05:27:10;;;;;;;;;;;;;;;15.76;77.32;102092.50;5079600;28;2056;-63
2022/11/12 05:29:36;;;;;;;;;;;;;;;15.77;76.96;102098.88;5055436;28;2027;-63
2022/11/12 05:32:02;;;;;;;;;;;;;;;15.76;77.11;102099.97;5062877;28;1907;-62
2022/11/12 05:34:27;;;;;;;;;;;;;;;15.75;77.03;102096.38;5087101;22;1996;-64
2022/11/12 05:36:52;;;;;;;;;;;;;;;15.74;77.07;102093.88;5063843;28;1634;-63
2022/11/12 05:39:17;;;;;;;;;;;;;;;15.73;77.17;102086.72;5052891;28;1897;-63
2022/11/12 05:41:42;;;;;;;;;;;;;;;15.74;77.19;102085.59;5054782;28;1702;-63
2022/11/12 05:44:08;;;;;;;;;;;;;;;15.74;77.33;102094.72;5055782;28;1983;-63
2022/11/12 05:46:33;;;;;;;;;;;;;;;15.73;77.12;102097.78;5066237;28;1902;-64
2022/11/12 05:48:58;;;;;;;;;;;;;;;15.72;76.88;102094.19;5051419;28;1897;-64
2022/11/12 05:51:23;;;;;;;;;;;;;;;15.72;77.54;102099.72;5060572;28;1787;-64
2022/11/12 05:53:49;;;;;;;;;;;;;;;15.74;77.10;102097.47;5060587;28;1697;-64
2022/11/12 05:56:14;;;;;;;;;;;;;;;15.74;77.37;102096.66;5059508;28;1788;-64
2022/11/12 05:58:39;;;;;;;;;;;;;;;15.73;77.50;102098.59;5054351;28;1878;-64
2022/11/12 06:01:04;;;;;;;;;;;;;;;15.73;77.64;102089.50;5057596;28;1793;-64
2022/11/12 06:03:29;;;;;;;;;;;;;;;15.74;77.09;102093.88;5063187;28;1893;-64
2022/11/12 06:05:54;;;;;;;;;;;;;;;15.73;77.17;102089.50;5060033;28;1788;-64
2022/11/12 06:08:20;;;;;;;;;;;;;;;15.73;77.26;102089.50;5050906;28;1882;-64
2022/11/12 06:10:49;;;;;;;;;;;;;;;15.72;77.19;102094.19;5049743;28;1872;-63
2022/11/12 06:13:15;;;;;;;;;;;;;;;15.71;77.39;102094.47;5054286;28;1939;-63
2022/11/12 06:15:40;;;;;;;;;;;;;;;15.72;77.25;102096.13;5062836;28;1756;-63
2022/11/12 06:18:05;;;;;;;;;;;;;;;15.71;77.22;102097.22;5065399;28;1844;-63
2022/11/12 06:20:30;;;;;;;;;;;;;;;15.71;77.22;102095.28;5068839;28;1575;-64
2022/11/12 06:22:56;;;;;;;;;;;;;;;15.72;77.33;102096.13;5074547;28;1951;-64
2022/11/12 06:25:21;;;;;;;;;;;;;;;15.71;76.97;102098.06;5056716;28;1195;-63
2022/11/12 06:27:46;;;;;;;;;;;;;;;15.70;77.27;102096.38;5058631;28;2057;-64
2022/11/12 06:30:11;;;;;;;;;;;;;;;15.70;77.59;102095.56;5068525;28;1537;-64
2022/11/12 06:32:36;;;;;;;;;;;;;;;15.71;76.94;102099.97;5076636;28;987;-64
2022/11/12 06:35:02;;;;;;;;;;;;;;;15.69;77.25;102099.41;5076460;28;1196;-64
2022/11/12 06:37:27;;;;;;;;;;;;;;;15.69;77.40;102093.91;5068782;28;1869;-63
2022/11/12 06:39:52;;;;;;;;;;;;;;;15.69;77.16;102097.50;5066210;28;1586;-63
2022/11/12 06:42:17;;;;;;;;;;;;;;;15.69;77.45;102099.41;5055676;28;1969;-63
2022/11/12 06:44:43;;;;;;;;;;;;;;;15.68;77.43;102112.38;5061836;28;2123;-63
2022/11/12 06:47:08;;;;;;;;;;;;;;;15.68;77.09;102109.63;5054608;28;1870;-64
2022/11/12 06:49:33;;;;;;;;;;;;;;;15.66;77.17;102106.31;5061360;28;1747;-63
2022/11/12 06:51:58;;;;;;;;;;;;;;;15.67;77.21;102115.41;5063818;28;2506;-63
2022/11/12 06:54:24;;;;;;;;;;;;;;;15.66;77.40;102116.53;5068408;28;1687;-64
2022/11/12 06:56:49;;;;;;;;;;;;;;;15.66;77.47;102114.59;5054698;28;1892;-63
2022/11/12 06:59:14;;;;;;;;;;;;;;;15.67;77.58;102119.00;5061645;28;1799;-64
2022/11/12 07:01:39;;;;;;;;;;;;;;;15.68;77.53;102117.09;5064802;28;1681;-63
2022/11/12 07:04:04;;;;;;;;;;;;;;;15.67;77.54;102110.72;5067682;28;1894;-63
2022/11/12 07:06:30;;;;;;;;;;;;;;;15.70;77.37;102112.13;5054517;28;1964;-63
2022/11/12 07:08:55;;;;;;;;;;;;;;;15.67;77.42;102112.66;5059326;28;1736;-63
2022/11/12 07:11:20;;;;;;;;;;;;;;;15.67;77.45;102118.19;5064431;28;1991;-63
2022/11/12 07:13:46;;;;;;;;;;;;;;;15.66;77.65;102113.75;5062751;28;1873;-64
2022/11/12 07:16:12;;;;;;;;;;;;;;;15.67;77.49;102118.19;5051801;28;1815;-63
2022/11/12 07:18:37;;;;;;;;;;;;;;;15.64;77.63;102122.34;5055542;28;1822;-63
2022/11/12 07:21:04;;;;;;;;;;;;;;;15.64;77.61;102127.88;5066313;28;1831;-63
2022/11/12 07:23:30;;;;;;;;;;;;;;;15.64;78.08;102124.28;5054623;28;1984;-63
2022/11/12 07:25:59;;;;;;;;;;;;;;;15.63;77.52;102125.38;5062084;28;1944;-63
2022/11/12 07:28:25;;;;;;;;;;;;;;;15.63;77.66;102117.09;5055754;28;1954;-62
2022/11/12 07:31:09;;;;;;;;;;;;;;;15.64;77.65;102132.56;5052698;28;1978;-63
2022/11/12 07:33:35;;;;;;;;;;;;;;;15.62;77.83;102135.59;5053957;28;2038;-63
2022/11/12 07:36:13;;;;;;;;;;;;;;;15.64;77.62;102138.91;5060428;28;1511;-64
2022/11/12 07:38:40;;;;;;;;;;;;;;;15.63;77.79;102133.66;5074334;28;1469;-63
2022/11/12 07:41:07;;;;;;;;;;;;;;;15.63;78.18;102131.72;5055530;28;1043;-63
2022/11/12 07:43:33;;;;;;;;;;;;;;;15.65;77.96;102134.22;5061661;28;1909;-64
2022/11/12 07:45:59;;;;;;;;;;;;;;;15.64;77.59;102130.63;5051214;28;1988;-64
2022/11/12 07:48:24;;;;;;;;;;;;;;;15.65;77.80;102131.47;5053708;28;1900;-64
2022/11/12 07:50:49;;;;;;;;;;;;;;;15.65;77.71;102128.69;5055861;28;1671;-64
2022/11/12 07:53:14;;;;;;;;;;;;;;;15.64;77.75;102127.03;5054209;28;1814;-64
2022/11/12 07:55:39;;;;;;;;;;;;;;;15.64;78.05;102136.16;5063282;28;1236;-63
2022/11/12 07:58:04;;;;;;;;;;;;;;;15.65;77.88;102128.69;5054927;28;821;-64
2022/11/12 08:00:29;;;;;;;;;;;;;;;15.62;78.01;102130.06;5053586;28;1712;-63
2022/11/12 08:02:57;;;;;;;;;;;;;;;15.65;77.73;102131.47;5053684;28;1951;-64
2022/11/12 08:05:22;;;;;;;;;;;;;;;15.66;78.00;102133.09;5055663;28;1735;-63
2022/11/12 08:07:48;;;;;;;;;;;;;;;15.66;77.96;102128.41;5074324;28;1536;-64
2022/11/12 08:10:13;;;;;;;;;;;;;;;15.67;78.20;102130.06;5065591;28;1883;-64
2022/11/12 08:12:38;;;;;;;;;;;;;;;15.68;77.82;102128.97;5061141;28;1756;-64
2022/11/12 08:15:03;;;;;;;;;;;;;;;15.71;78.06;102131.19;5058688;28;1745;-63
2022/11/12 08:17:28;;;;;;;;;;;;;;;15.74;78.41;102130.59;5059797;28;1818;-63
2022/11/12 08:19:54;;;;;;;;;;;;;;;15.74;78.15;102127.84;5063646;28;1779;-64
2022/11/12 08:22:19;;;;;;;;;;;;;;;15.76;78.11;102133.09;5065222;28;1894;-63
2022/11/12 08:24:44;;;;;;;;;;;;;;;15.76;78.08;102127.56;5052622;28;1945;-63
2022/11/12 08:27:09;;;;;;;;;;;;;;;15.79;78.02;102135.31;5053243;28;1656;-63
2022/11/12 08:29:34;;;;;;;;;;;;;;;15.80;78.07;102139.75;5067454;28;1334;-63
2022/11/12 08:32:00;;;;;;;;;;;;;;;15.80;78.38;102135.03;5065634;28;1025;-63
2022/11/12 08:34:25;;;;;;;;;;;;;;;15.86;78.41;102152.44;5052399;28;1918;-63
2022/11/12 08:36:50;;;;;;;;;;;;;;;15.89;77.61;102144.44;5052349;28;1903;-63
2022/11/12 08:39:15;;;;;;;;;;;;;;;15.95;77.98;102139.72;5060734;28;1572;-63
2022/11/12 08:41:40;;;;;;;;;;;;;;;15.95;77.65;102155.47;5053370;28;1888;-63
2022/11/12 08:44:05;;;;;;;;;;;;;;;15.95;78.28;102148.03;5052053;28;1965;-63
2022/11/12 08:46:31;;;;;;;;;;;;;;;15.96;78.19;102151.63;5052051;28;1870;-63
2022/11/12 08:48:56;;;;;;;;;;;;;;;15.97;78.09;102150.50;5058040;28;1701;-63
2022/11/12 08:51:21;;;;;;;;;;;;;;;15.98;78.40;102153.00;5059426;28;1873;-63
2022/11/12 08:53:46;;;;;;;;;;;;;;;15.99;78.34;102154.63;5061162;28;1939;-63
2022/11/12 08:56:11;;;;;;;;;;;;;;;16.02;77.49;102165.13;5053078;28;1968;-63
2022/11/12 08:58:36;;;;;;;;;;;;;;;16.02;78.33;102147.72;5051168;28;2058;-63
2022/11/12 09:01:05;;;;;;;;;;;;;;;16.04;78.59;102154.66;5058898;28;1595;-63
2022/11/12 09:03:31;;;;;;;;;;;;;;;16.07;78.52;102148.59;5062518;28;1897;-63
2022/11/12 09:05:56;;;;;;;;;;;;;;;16.08;78.27;102157.66;5052800;28;1857;-63
2022/11/12 09:08:22;;;;;;;;;;;;;;;16.09;78.42;102159.31;5061181;28;1860;-63
2022/11/12 09:10:48;;;;;;;;;;;;;;;16.10;78.55;102161.81;5062067;28;1791;-63
2022/11/12 09:13:14;;;;;;;;;;;;;;;16.12;78.57;102156.84;5057321;28;1843;-63
2022/11/12 09:15:39;;;;;;;;;;;;;;;16.14;78.58;102164.88;5051979;28;1963;-63
2022/11/12 09:18:06;;;;;;;;;;;;;;;16.15;78.36;102161.00;5051874;28;1742;-63
2022/11/12 09:20:31;;;;;;;;;;;;;;;16.16;78.50;102157.94;5056948;28;1791;-64
2022/11/12 09:23:01;;;;;;;;;;;;;;;16.17;78.71;102156.84;5052677;28;2057;-63
2022/11/12 09:25:26;;;;;;;;;;;;;;;16.17;78.45;102159.59;5051438;28;1873;-63
2022/11/12 09:27:52;;;;;;;;;;;;;;;16.20;78.47;102156.28;5055686;28;2128;-63
2022/11/12 09:30:17;;;;;;;;;;;;;;;16.21;78.62;102155.19;5060792;28;1905;-63
2022/11/12 09:32:42;;;;;;;;;;;;;;;16.23;78.65;102152.16;5061497;28;1897;-63
2022/11/12 09:35:07;;;;;;;;;;;;;;;16.26;78.09;102148.81;5050372;28;2030;-63
2022/11/12 09:37:32;;;;;;;;;;;;;;;16.25;78.39;102147.97;5052465;28;1955;-63
2022/11/12 09:39:57;;;;;;;;;;;;;;;16.26;77.44;102141.34;5059094;28;1900;-63
2022/11/12 09:42:23;;;;;;;;;;;;;;;16.29;78.49;102151.03;5057616;28;1913;-63
2022/11/12 09:44:56;;;;;;;;;;;;;;;16.28;78.66;102144.69;5055228;28;1776;-63
2022/11/12 09:47:37;;;;;;;;;;;;;;;16.29;77.78;102134.44;5061072;28;1209;-63
2022/11/12 09:50:14;;;;;;;;;;;;;;;16.31;78.56;102136.94;5052455;28;846;-63
2022/11/12 09:52:42;;;;;;;;;;;;;;;16.32;78.48;102130.31;5050930;28;892;-63
2022/11/12 09:55:07;;;;;;;;;;;;;;;16.32;78.53;102133.06;5055950;28;2119;-63
2022/11/12 09:57:32;;;;;;;;;;;;;;;16.32;77.80;102130.31;5062791;28;1558;-63
2022/11/12 09:59:58;;;;;;;;;;;;;;;16.34;77.95;102139.13;5071380;28;891;-63
2022/11/12 10:02:30;;;;;;;;;;;;;;;16.34;77.99;102133.59;5071292;28;1987;-63
2022/11/12 10:05:14;;;;;;;;;;;;;;;16.34;78.60;102130.84;5064445;28;1738;-63
2022/11/12 10:08:00;;;;;;;;;;;;;;;16.34;77.92;102131.66;5071309;28;1580;-63
2022/11/12 10:10:45;;;;;;;;;;;;;;;16.34;78.26;102139.97;5073208;28;1121;-63
2022/11/12 10:13:10;;;;;;;;;;;;;;;16.34;78.23;102131.66;5071688;28;1710;-63
2022/11/12 10:18:34;;;;;;;;;;;;;;;16.35;78.51;102132.50;5073110;28;745;-63
2022/11/12 10:21:11;;;;;;;;;;;;;;;16.32;78.22;102130.31;5072917;28;900;-63
2022/11/12 10:23:41;;;;;;;;;;;;;;;16.33;78.31;102129.22;5069282;28;1982;-63
2022/11/12 10:26:17;;;;;;;;;;;;;;;16.33;78.78;102118.97;5064493;28;1629;-63
2022/11/12 10:28:45;;;;;;;;;;;;;;;16.34;78.20;102123.38;5072954;28;1066;-63
2022/11/12 10:31:12;;;;;;;;;;;;;;;16.34;78.41;102117.03;5072882;28;869;-63
2022/11/12 10:33:37;;;;;;;;;;;;;;;16.33;78.61;102110.69;5072604;28;1237;-63
2022/11/12 10:36:29;;;;;;;;;;;;;;;16.33;78.45;102105.16;5069302;28;1998;-63
2022/11/12 10:38:54;;;;;;;;;;;;;;;16.33;78.44;102115.38;5056076;28;1512;-63
2022/11/12 10:41:20;;;;;;;;;;;;;;;16.33;78.43;102107.94;5072852;28;833;-63
2022/11/12 10:44:14;;;;;;;;;;;;;;;16.33;78.19;102107.94;5072536;28;1902;-63
2022/11/12 10:46:39;;;;;;;;;;;;;;;16.32;78.18;102100.75;5067719;28;1329;-63
2022/11/12 10:49:07;;;;;;;;;;;;;;;16.33;78.28;102107.94;5072590;28;1913;-63
2022/11/12 10:51:35;;;;;;;;;;;;;;;16.33;78.54;102096.03;5061122;28;1617;-63
2022/11/12 10:54:25;;;;;;;;;;;;;;;16.33;78.46;102088.59;5072590;28;1223;-63
2022/11/12 10:56:50;;;;;;;;;;;;;;;16.34;78.40;102087.44;5072405;28;892;-63
2022/11/12 10:59:20;;;;;;;;;;;;;;;16.34;78.24;102083.84;5072835;28;790;-63
2022/11/12 11:01:52;;;;;;;;;;;;;;;16.35;77.97;102080.81;5072673;28;919;-63
2022/11/12 11:04:34;;;;;;;;;;;;;;;16.36;77.78;102082.47;5066043;28;1953;-63
2022/11/12 11:07:14;;;;;;;;;;;;;;;16.37;78.20;102077.78;5058755;28;1886;-63
2022/11/12 11:09:52;;;;;;;;;;;;;;;16.38;78.48;102077.50;5074737;28;1690;-63
2022/11/12 11:12:25;;;;;;;;;;;;;;;16.39;78.00;102070.88;5076078;28;789;-63
2022/11/12 11:15:07;;;;;;;;;;;;;;;16.41;78.00;102076.13;5065749;28;1917;-63
2022/11/12 11:17:33;;;;;;;;;;;;;;;16.42;78.43;102075.00;5073422;28;1657;-63
2022/11/12 11:19:58;;;;;;;;;;;;;;;16.44;78.24;102076.38;5068399;28;1938;-63
2022/11/12 11:22:39;;;;;;;;;;;;;;;16.44;78.02;102076.38;5049509;28;2003;-63
2022/11/12 11:25:21;;;;;;;;;;;;;;;16.46;77.66;102076.94;5057658;28;1279;-63
2022/11/12 11:27:55;;;;;;;;;;;;;;;16.46;78.02;102070.56;5055416;28;991;-63
2022/11/12 11:30:20;;;;;;;;;;;;;;;16.47;77.75;102064.75;5055728;28;829;-63
2022/11/12 11:32:54;;;;;;;;;;;;;;;16.48;77.81;102060.91;5055814;28;790;-63
2022/11/12 11:35:38;;;;;;;;;;;;;;;16.49;78.07;102064.50;5060704;22;3787;-63
2022/11/12 11:38:22;;;;;;;;;;;;;;;16.49;78.07;102058.97;5048910;28;1351;-62
2022/11/12 11:40:57;;;;;;;;;;;;;;;16.48;78.21;102049.00;5035609;28;979;-61
2022/11/12 11:43:35;;;;;;;;;;;;;;;16.49;78.42;102045.97;5044039;28;1914;-63
2022/11/12 11:46:09;;;;;;;;;;;;;;;16.50;78.45;102044.03;5055299;28;852;-63
2022/11/12 11:49:00;;;;;;;;;;;;;;;16.50;78.45;102044.03;5055367;28;891;-62
2022/11/12 11:51:41;;;;;;;;;;;;;;;16.51;77.75;102042.91;5045413;28;1674;-62
2022/11/12 11:54:25;;;;;;;;;;;;;;;16.51;78.27;102040.13;5049103;28;1887;-62
2022/11/12 11:56:54;;;;;;;;;;;;;;;16.49;77.56;102037.69;5046512;28;1448;-62
2022/11/12 11:59:22;;;;;;;;;;;;;;;16.51;77.65;102034.59;5049345;28;1996;-62
2022/11/12 12:01:53;;;;;;;;;;;;;;;16.50;77.85;102032.97;5054349;28;1734;-62
2022/11/12 12:04:22;;;;;;;;;;;;;;;16.51;77.54;102026.31;5043132;28;2026;-62
2022/11/12 12:06:56;;;;;;;;;;;;;;;16.51;78.25;102018.03;5047260;28;1907;-62
2022/11/12 12:09:27;;;;;;;;;;;;;;;16.51;77.41;102018.03;5047219;28;1793;-62
2022/11/12 12:11:55;;;;;;;;;;;;;;;16.49;77.91;102021.09;5051535;28;2030;-63
2022/11/12 12:14:20;;;;;;;;;;;;;;;16.49;78.21;102020.25;5046168;28;2016;-62
2022/11/12 12:16:45;;;;;;;;;;;;;;;16.48;77.95;102016.66;5052072;28;1918;-61
2022/11/12 12:19:17;;;;;;;;;;;;;;;16.34;76.86;102015.59;5042660;28;2224;-62
2022/11/12 12:21:45;;;;;;;;;;;;;;;16.34;76.99;102014.78;5048486;28;1808;-63
2022/11/12 12:24:16;;;;;;;;;;;;;;;16.38;77.03;102007.59;5044860;28;2153;-62
2022/11/12 12:26:47;;;;;;;;;;;;;;;16.41;77.40;102007.03;5052318;28;1946;-62
2022/11/12 12:29:16;;;;;;;;;;;;;;;16.45;77.00;102002.56;5047114;28;2663;-61
2022/11/12 12:31:50;;;;;;;;;;;;;;;16.46;76.98;101996.78;5043652;28;1997;-62
2022/11/12 12:34:26;;;;;;;;;;;;;;;16.49;77.33;101998.16;5042463;28;1803;-62
2022/11/12 12:36:56;;;;;;;;;;;;;;;16.50;77.13;101986.78;5042662;28;1492;-62
2022/11/12 12:39:34;;;;;;;;;;;;;;;16.52;76.81;101978.22;5048639;28;2049;-62
2022/11/12 12:42:09;;;;;;;;;;;;;;;16.53;77.06;101980.69;5052282;28;1881;-63
2022/11/12 12:47:25;;;;;;;;;;;;;;;16.56;77.05;101984.84;5044660;28;1912;-63
2022/11/12 12:49:51;;;;;;;;;;;;;;;16.56;78.08;101984.84;5045807;28;2223;-62
2022/11/12 12:52:16;;;;;;;;;;;;;;;16.57;77.38;101981.78;5043799;28;2123;-62
2022/11/12 12:54:41;;;;;;;;;;;;;;;16.57;76.99;101979.03;5045655;28;1748;-62
2022/11/12 12:57:39;;;;;;;;;;;;;;;16.58;76.83;101980.69;5043128;28;1717;-62
2022/11/12 13:00:22;;;;;;;;;;;;;;;16.59;77.59;101973.19;5018005;28;1710;-62
2022/11/12 13:02:48;;;;;;;;;;;;;;;16.62;76.97;101976.25;5050161;28;1898;-62
2022/11/12 13:05:29;;;;;;;;;;;;;;;16.64;77.03;101967.69;5036638;28;1837;-62
2022/11/12 13:07:57;;;;;;;;;;;;;;;16.67;77.18;101961.59;5031232;28;864;-63
2022/11/12 13:10:40;;;;;;;;;;;;;;;16.69;76.75;101970.41;5041070;28;1940;-63
2022/11/12 13:13:05;;;;;;;;;;;;;;;16.71;77.36;101967.38;5042904;28;1926;-63
2022/11/12 13:15:41;;;;;;;;;;;;;;;16.72;77.58;101956.03;5040840;28;1968;-63
2022/11/12 13:18:07;;;;;;;;;;;;;;;16.73;76.73;101960.44;5035365;28;1631;-61
2022/11/12 13:20:34;;;;;;;;;;;;;;;16.73;76.74;101957.69;5047675;28;2043;-63